sensor_id;sensor_type;location;lat;lon;timestamp;temperature;humidity
16627;DHT22;8427;52.204;7.202;2024-03-23T00:55:21;6.60;92.00
16627;DHT22;8427;52.204;7.202;2024-03-23T00:57:50;6.70;92.10
16627;DHT22;8427;52.204;7.202;2024-03-23T01:00:25;6.80;92.10
16627;DHT22;8427;52.204;7.202;2024-03-23T01:03:02;6.70;91.80
16627;DHT22;8427;52.204;7.202;2024-03-23T01:05:34;6.80;91.90
16627;DHT22;8427;52.204;7.202;2024-03-23T01:08:15;6.70;91.90
16627;DHT22;8427;52.204;7.202;2024-03-23T01:11:01;6.70;91.60
16627;DHT22;8427;52.204;7.202;2024-03-23T01:13:35;6.60;91.60
16627;DHT22;8427;52.204;7.202;2024-03-23T01:16:03;6.50;91.60
16627;DHT22;8427;52.204;7.202;2024-03-23T01:18:32;6.60;91.70
16627;DHT22;8427;52.204;7.202;2024-03-23T01:21:10;6.70;91.70
16627;DHT22;8427;52.204;7.202;2024-03-23T01:23:43;6.40;91.90
16627;DHT22;8427;52.204;7.202;2024-03-23T01:26:18;6.50;92.10
16627;DHT22;8427;52.204;7.202;2024-03-23T01:28:49;6.40;92.40
16627;DHT22;8427;52.204;7.202;2024-03-23T01:31:18;6.30;92.40
16627;DHT22;8427;52.204;7.202;2024-03-23T01:33:50;6.50;92.30
16627;DHT22;8427;52.204;7.202;2024-03-23T01:36:25;6.40;92.30
16627;DHT22;8427;52.204;7.202;2024-03-23T01:38:52;6.50;92.50
16627;DHT22;8427;52.204;7.202;2024-03-23T01:44:10;6.20;92.80
16627;DHT22;8427;52.204;7.202;2024-03-23T01:46:49;6.30;92.70
16627;DHT22;8427;52.204;7.202;2024-03-23T01:49:17;6.30;93.00
16627;DHT22;8427;52.204;7.202;2024-03-23T01:51:53;6.40;92.90
16627;DHT22;8427;52.204;7.202;2024-03-23T01:54:25;6.30;93.10
16627;DHT22;8427;52.204;7.202;2024-03-23T01:56:56;6.50;93.20
16627;DHT22;8427;52.204;7.202;2024-03-23T02:05:17;6.30;93.80
16627;DHT22;8427;52.204;7.202;2024-03-23T02:07:48;6.50;93.80
16627;DHT22;8427;52.204;7.202;2024-03-23T02:10:24;6.60;94.00
16627;DHT22;8427;52.204;7.202;2024-03-23T02:13:13;6.50;94.00
16627;DHT22;8427;52.204;7.202;2024-03-23T02:16:14;6.50;94.10
16627;DHT22;8427;52.204;7.202;2024-03-23T02:18:44;6.60;94.30
16627;DHT22;8427;52.204;7.202;2024-03-23T02:37:02;6.30;94.60
16627;DHT22;8427;52.204;7.202;2024-03-23T02:40:12;6.50;94.70
16627;DHT22;8427;52.204;7.202;2024-03-23T02:42:47;6.50;94.70
16627;DHT22;8427;52.204;7.202;2024-03-23T02:45:20;6.60;94.70
16627;DHT22;8427;52.204;7.202;2024-03-23T02:47:58;6.50;94.70
16627;DHT22;8427;52.204;7.202;2024-03-23T02:50:35;6.60;94.80
16627;DHT22;8427;52.204;7.202;2024-03-23T02:56:29;6.50;94.80
16627;DHT22;8427;52.204;7.202;2024-03-23T02:59:28;6.40;94.50
16627;DHT22;8427;52.204;7.202;2024-03-23T03:02:05;6.50;94.60
16627;DHT22;8427;52.204;7.202;2024-03-23T03:04:54;6.20;94.50
16627;DHT22;8427;52.204;7.202;2024-03-23T03:07:45;6.40;94.40
16627;DHT22;8427;52.204;7.202;2024-03-23T03:10:21;6.40;94.40
16627;DHT22;8427;52.204;7.202;2024-03-23T03:12:59;6.40;94.50
16627;DHT22;8427;52.204;7.202;2024-03-23T03:15:34;6.50;94.40
16627;DHT22;8427;52.204;7.202;2024-03-23T03:18:07;6.50;94.40
16627;DHT22;8427;52.204;7.202;2024-03-23T03:21:04;6.40;94.30
16627;DHT22;8427;52.204;7.202;2024-03-23T03:23:48;6.40;94.40
16627;DHT22;8427;52.204;7.202;2024-03-23T03:26:32;6.30;94.40
16627;DHT22;8427;52.204;7.202;2024-03-23T03:29:20;6.20;94.40
16627;DHT22;8427;52.204;7.202;2024-03-23T03:34:10;6.40;94.30
16627;DHT22;8427;52.204;7.202;2024-03-23T03:35:41;6.10;94.40
16627;DHT22;8427;52.204;7.202;2024-03-23T03:38:14;6.20;94.50
16627;DHT22;8427;52.204;7.202;2024-03-23T03:40:47;6.10;94.50
16627;DHT22;8427;52.204;7.202;2024-03-23T03:43:35;6.00;94.40
16627;DHT22;8427;52.204;7.202;2024-03-23T03:46:16;6.10;94.40
16627;DHT22;8427;52.204;7.202;2024-03-23T03:49:10;6.10;94.40
16627;DHT22;8427;52.204;7.202;2024-03-23T03:52:04;6.10;94.40
16627;DHT22;8427;52.204;7.202;2024-03-23T03:54:47;6.10;94.20
16627;DHT22;8427;52.204;7.202;2024-03-23T04:00:08;6.00;94.50
16627;DHT22;8427;52.204;7.202;2024-03-23T04:02:46;5.80;94.70
16627;DHT22;8427;52.204;7.202;2024-03-23T04:05:17;5.70;94.60
16627;DHT22;8427;52.204;7.202;2024-03-23T04:07:55;5.60;94.60
16627;DHT22;8427;52.204;7.202;2024-03-23T04:10:24;5.80;94.70
16627;DHT22;8427;52.204;7.202;2024-03-23T04:13:04;5.70;94.80
16627;DHT22;8427;52.204;7.202;2024-03-23T04:18:16;5.70;94.70
16627;DHT22;8427;52.204;7.202;2024-03-23T04:20:48;5.50;94.80
16627;DHT22;8427;52.204;7.202;2024-03-23T04:23:15;5.30;94.70
16627;DHT22;8427;52.204;7.202;2024-03-23T04:25:50;5.40;94.90
16627;DHT22;8427;52.204;7.202;2024-03-23T04:28:22;5.30;94.90
16627;DHT22;8427;52.204;7.202;2024-03-23T04:30:53;5.40;95.00
16627;DHT22;8427;52.204;7.202;2024-03-23T04:33:29;5.40;95.10
16627;DHT22;8427;52.204;7.202;2024-03-23T04:36:01;5.60;95.00
16627;DHT22;8427;52.204;7.202;2024-03-23T04:38:47;5.30;94.90
16627;DHT22;8427;52.204;7.202;2024-03-23T04:41:19;5.20;94.90
16627;DHT22;8427;52.204;7.202;2024-03-23T04:43:54;5.20;95.00
16627;DHT22;8427;52.204;7.202;2024-03-23T04:46:24;5.30;95.10
16627;DHT22;8427;52.204;7.202;2024-03-23T04:49:00;5.00;95.20
16627;DHT22;8427;52.204;7.202;2024-03-23T04:51:42;5.30;95.10
16627;DHT22;8427;52.204;7.202;2024-03-23T04:54:27;5.20;95.20
16627;DHT22;8427;52.204;7.202;2024-03-23T04:57:08;5.10;95.10
16627;DHT22;8427;52.204;7.202;2024-03-23T04:59:56;5.20;95.20
16627;DHT22;8427;52.204;7.202;2024-03-23T05:02:34;5.10;95.30
16627;DHT22;8427;52.204;7.202;2024-03-23T05:07:59;5.00;95.30
16627;DHT22;8427;52.204;7.202;2024-03-23T05:10:41;5.20;95.30
16627;DHT22;8427;52.204;7.202;2024-03-23T05:13:11;4.90;95.30
16627;DHT22;8427;52.204;7.202;2024-03-23T05:15:39;5.10;95.40
16627;DHT22;8427;52.204;7.202;2024-03-23T05:18:10;5.00;95.30
16627;DHT22;8427;52.204;7.202;2024-03-23T05:20:39;5.20;95.40
16627;DHT22;8427;52.204;7.202;2024-03-23T05:23:07;5.20;95.50
16627;DHT22;8427;52.204;7.202;2024-03-23T05:25:42;5.00;95.50
16627;DHT22;8427;52.204;7.202;2024-03-23T05:31:03;5.20;95.60
16627;DHT22;8427;52.204;7.202;2024-03-23T05:33:32;5.20;95.50
16627;DHT22;8427;52.204;7.202;2024-03-23T05:36:31;5.00;95.40
16627;DHT22;8427;52.204;7.202;2024-03-23T05:39:15;4.90;95.50
16627;DHT22;8427;52.204;7.202;2024-03-23T05:41:53;5.00;95.50
16627;DHT22;8427;52.204;7.202;2024-03-23T05:47:37;4.90;95.50
16627;DHT22;8427;52.204;7.202;2024-03-23T05:50:04;5.20;95.50
16627;DHT22;8427;52.204;7.202;2024-03-23T05:52:32;4.90;95.50
16627;DHT22;8427;52.204;7.202;2024-03-23T05:55:01;4.80;95.60
16627;DHT22;8427;52.204;7.202;2024-03-23T05:57:44;4.90;95.50
16627;DHT22;8427;52.204;7.202;2024-03-23T06:00:23;5.00;95.40
16627;DHT22;8427;52.204;7.202;2024-03-23T06:03:01;5.00;95.50
16627;DHT22;8427;52.204;7.202;2024-03-23T06:05:32;5.00;95.50
16627;DHT22;8427;52.204;7.202;2024-03-23T06:08:03;5.00;95.40
16627;DHT22;8427;52.204;7.202;2024-03-23T06:10:38;5.10;95.60
16627;DHT22;8427;52.204;7.202;2024-03-23T06:13:04;5.10;95.30
16627;DHT22;8427;52.204;7.202;2024-03-23T06:15:33;5.00;95.40
16627;DHT22;8427;52.204;7.202;2024-03-23T06:18:06;5.10;95.50
16627;DHT22;8427;52.204;7.202;2024-03-23T06:20:36;5.10;95.40
16627;DHT22;8427;52.204;7.202;2024-03-23T06:23:04;5.30;95.30
16627;DHT22;8427;52.204;7.202;2024-03-23T06:25:33;5.00;95.20
16627;DHT22;8427;52.204;7.202;2024-03-23T06:28:02;5.20;95.30
16627;DHT22;8427;52.204;7.202;2024-03-23T06:30:37;5.20;95.20
16627;DHT22;8427;52.204;7.202;2024-03-23T06:33:03;5.30;95.20
16627;DHT22;8427;52.204;7.202;2024-03-23T06:35:31;5.30;95.10
16627;DHT22;8427;52.204;7.202;2024-03-23T06:37:57;5.40;95.00
16627;DHT22;8427;52.204;7.202;2024-03-23T06:40:24;5.30;94.70
16627;DHT22;8427;52.204;7.202;2024-03-23T06:42:50;5.20;94.60
16627;DHT22;8427;52.204;7.202;2024-03-23T06:45:23;5.50;94.70
16627;DHT22;8427;52.204;7.202;2024-03-23T06:47:53;5.40;94.60
16627;DHT22;8427;52.204;7.202;2024-03-23T06:50:28;5.40;94.40
16627;DHT22;8427;52.204;7.202;2024-03-23T06:52:54;5.50;94.00
16627;DHT22;8427;52.204;7.202;2024-03-23T06:55:23;5.40;93.80
16627;DHT22;8427;52.204;7.202;2024-03-23T06:57:50;5.50;93.70
16627;DHT22;8427;52.204;7.202;2024-03-23T07:00:18;5.60;92.90
16627;DHT22;8427;52.204;7.202;2024-03-23T07:02:48;5.50;93.10
16627;DHT22;8427;52.204;7.202;2024-03-23T07:05:15;5.80;93.00
16627;DHT22;8427;52.204;7.202;2024-03-23T07:07:41;6.10;93.10
16627;DHT22;8427;52.204;7.202;2024-03-23T07:10:08;6.40;92.90
16627;DHT22;8427;52.204;7.202;2024-03-23T07:12:34;6.50;92.60
16627;DHT22;8427;52.204;7.202;2024-03-23T07:15:01;6.40;91.70
16627;DHT22;8427;52.204;7.202;2024-03-23T07:17:27;6.50;92.00
16627;DHT22;8427;52.204;7.202;2024-03-23T07:19:56;6.50;91.50
16627;DHT22;8427;52.204;7.202;2024-03-23T07:22:22;6.20;91.00
16627;DHT22;8427;52.204;7.202;2024-03-23T07:24:49;6.30;90.50
16627;DHT22;8427;52.204;7.202;2024-03-23T07:27:15;6.40;90.70
16627;DHT22;8427;52.204;7.202;2024-03-23T07:29:42;6.40;90.20
16627;DHT22;8427;52.204;7.202;2024-03-23T07:32:10;6.50;89.50
16627;DHT22;8427;52.204;7.202;2024-03-23T07:34:37;6.20;88.30
16627;DHT22;8427;52.204;7.202;2024-03-23T07:37:06;6.30;89.20
16627;DHT22;8427;52.204;7.202;2024-03-23T07:39:36;6.30;89.10
16627;DHT22;8427;52.204;7.202;2024-03-23T07:42:02;6.30;89.10
16627;DHT22;8427;52.204;7.202;2024-03-23T07:44:31;6.30;88.20
16627;DHT22;8427;52.204;7.202;2024-03-23T07:46:58;6.30;88.90
16627;DHT22;8427;52.204;7.202;2024-03-23T07:49:27;6.00;89.00
16627;DHT22;8427;52.204;7.202;2024-03-23T07:51:53;6.40;89.10
16627;DHT22;8427;52.204;7.202;2024-03-23T07:54:24;6.70;89.10
16627;DHT22;8427;52.204;7.202;2024-03-23T07:56:53;6.70;87.70
16627;DHT22;8427;52.204;7.202;2024-03-23T07:59:21;6.80;87.70
16627;DHT22;8427;52.204;7.202;2024-03-23T08:01:46;7.10;86.90
16627;DHT22;8427;52.204;7.202;2024-03-23T08:04:13;7.10;86.30
16627;DHT22;8427;52.204;7.202;2024-03-23T08:06:39;7.30;85.30
16627;DHT22;8427;52.204;7.202;2024-03-23T08:09:08;7.50;86.10
16627;DHT22;8427;52.204;7.202;2024-03-23T08:11:43;7.50;85.60
16627;DHT22;8427;52.204;7.202;2024-03-23T08:14:14;7.60;85.00
16627;DHT22;8427;52.204;7.202;2024-03-23T08:16:45;7.40;84.70
16627;DHT22;8427;52.204;7.202;2024-03-23T08:19:16;7.20;85.00
16627;DHT22;8427;52.204;7.202;2024-03-23T08:21:43;7.80;85.20
16627;DHT22;8427;52.204;7.202;2024-03-23T08:24:11;8.00;83.40
16627;DHT22;8427;52.204;7.202;2024-03-23T08:26:40;7.90;83.80
16627;DHT22;8427;52.204;7.202;2024-03-23T08:29:08;8.20;83.30
16627;DHT22;8427;52.204;7.202;2024-03-23T08:31:34;8.00;82.70
16627;DHT22;8427;52.204;7.202;2024-03-23T08:34:01;8.00;83.20
16627;DHT22;8427;52.204;7.202;2024-03-23T08:36:27;8.00;82.40
16627;DHT22;8427;52.204;7.202;2024-03-23T08:39:10;7.60;80.90
16627;DHT22;8427;52.204;7.202;2024-03-23T08:41:40;7.60;82.00
16627;DHT22;8427;52.204;7.202;2024-03-23T08:44:08;7.70;82.40
16627;DHT22;8427;52.204;7.202;2024-03-23T08:46:35;7.60;82.80
16627;DHT22;8427;52.204;7.202;2024-03-23T08:49:01;7.50;81.60
16627;DHT22;8427;52.204;7.202;2024-03-23T08:51:28;7.50;82.50
16627;DHT22;8427;52.204;7.202;2024-03-23T08:53:54;7.30;82.70
16627;DHT22;8427;52.204;7.202;2024-03-23T08:56:21;7.30;83.40
16627;DHT22;8427;52.204;7.202;2024-03-23T08:58:53;7.00;82.80
16627;DHT22;8427;52.204;7.202;2024-03-23T09:01:21;7.10;83.00
16627;DHT22;8427;52.204;7.202;2024-03-23T09:03:47;6.80;81.50
16627;DHT22;8427;52.204;7.202;2024-03-23T09:06:15;7.00;81.90
16627;DHT22;8427;52.204;7.202;2024-03-23T09:08:42;7.10;81.80
16627;DHT22;8427;52.204;7.202;2024-03-23T09:11:10;7.50;82.20
16627;DHT22;8427;52.204;7.202;2024-03-23T09:13:37;7.60;80.10
16627;DHT22;8427;52.204;7.202;2024-03-23T09:16:06;7.60;79.00
16627;DHT22;8427;52.204;7.202;2024-03-23T09:18:32;8.10;77.00
16627;DHT22;8427;52.204;7.202;2024-03-23T09:21:02;8.10;76.20
16627;DHT22;8427;52.204;7.202;2024-03-23T09:23:28;8.00;78.40
16627;DHT22;8427;52.204;7.202;2024-03-23T09:25:55;8.00;80.20
16627;DHT22;8427;52.204;7.202;2024-03-23T09:28:21;7.20;80.60
16627;DHT22;8427;52.204;7.202;2024-03-23T09:30:49;7.00;81.90
16627;DHT22;8427;52.204;7.202;2024-03-23T09:33:17;6.70;81.60
16627;DHT22;8427;52.204;7.202;2024-03-23T09:35:45;6.70;82.10
16627;DHT22;8427;52.204;7.202;2024-03-23T09:38:11;6.40;82.80
16627;DHT22;8427;52.204;7.202;2024-03-23T09:40:40;6.60;83.40
16627;DHT22;8427;52.204;7.202;2024-03-23T09:43:06;6.60;83.80
16627;DHT22;8427;52.204;7.202;2024-03-23T09:45:34;6.70;83.40
16627;DHT22;8427;52.204;7.202;2024-03-23T09:48:01;6.90;82.30
16627;DHT22;8427;52.204;7.202;2024-03-23T09:53:12;6.80;81.70
16627;DHT22;8427;52.204;7.202;2024-03-23T09:55:44;6.80;82.20
16627;DHT22;8427;52.204;7.202;2024-03-23T09:58:14;7.00;82.70
16627;DHT22;8427;52.204;7.202;2024-03-23T10:00:41;7.00;82.20
16627;DHT22;8427;52.204;7.202;2024-03-23T10:03:07;7.50;80.70
16627;DHT22;8427;52.204;7.202;2024-03-23T10:05:36;7.40;79.10
16627;DHT22;8427;52.204;7.202;2024-03-23T10:08:10;7.90;81.50
16627;DHT22;8427;52.204;7.202;2024-03-23T10:10:45;8.40;81.20
16627;DHT22;8427;52.204;7.202;2024-03-23T10:13:11;8.50;78.90
16627;DHT22;8427;52.204;7.202;2024-03-23T10:15:42;8.70;73.30
16627;DHT22;8427;52.204;7.202;2024-03-23T10:18:17;8.70;74.10
16627;DHT22;8427;52.204;7.202;2024-03-23T10:20:45;9.10;74.60
16627;DHT22;8427;52.204;7.202;2024-03-23T10:23:15;9.40;72.80
16627;DHT22;8427;52.204;7.202;2024-03-23T10:25:42;9.10;69.30
16627;DHT22;8427;52.204;7.202;2024-03-23T10:28:10;8.80;70.50
16627;DHT22;8427;52.204;7.202;2024-03-23T10:30:39;8.60;69.10
16627;DHT22;8427;52.204;7.202;2024-03-23T10:33:09;8.50;70.70
16627;DHT22;8427;52.204;7.202;2024-03-23T10:35:36;8.70;68.60
16627;DHT22;8427;52.204;7.202;2024-03-23T10:38:03;8.70;70.10
16627;DHT22;8427;52.204;7.202;2024-03-23T10:40:31;8.80;67.50
16627;DHT22;8427;52.204;7.202;2024-03-23T10:43:05;8.70;68.20
16627;DHT22;8427;52.204;7.202;2024-03-23T10:45:38;8.70;65.60
16627;DHT22;8427;52.204;7.202;2024-03-23T10:48:04;9.00;69.10
16627;DHT22;8427;52.204;7.202;2024-03-23T10:50:33;9.10;67.20
16627;DHT22;8427;52.204;7.202;2024-03-23T10:53:02;9.20;66.70
16627;DHT22;8427;52.204;7.202;2024-03-23T10:55:44;9.30;67.20
16627;DHT22;8427;52.204;7.202;2024-03-23T10:58:12;9.30;68.00
16627;DHT22;8427;52.204;7.202;2024-03-23T11:00:42;8.90;71.50
16627;DHT22;8427;52.204;7.202;2024-03-23T11:03:30;8.70;70.40
16627;DHT22;8427;52.204;7.202;2024-03-23T11:05:56;8.60;72.80
16627;DHT22;8427;52.204;7.202;2024-03-23T11:08:34;8.90;74.50
16627;DHT22;8427;52.204;7.202;2024-03-23T11:11:13;8.70;71.70
16627;DHT22;8427;52.204;7.202;2024-03-23T11:13:40;8.80;71.90
16627;DHT22;8427;52.204;7.202;2024-03-23T11:16:14;8.90;69.60
16627;DHT22;8427;52.204;7.202;2024-03-23T11:18:41;9.10;70.80
16627;DHT22;8427;52.204;7.202;2024-03-23T11:21:07;9.40;73.90
16627;DHT22;8427;52.204;7.202;2024-03-23T11:23:34;9.60;68.40
16627;DHT22;8427;52.204;7.202;2024-03-23T11:26:00;9.50;66.70
16627;DHT22;8427;52.204;7.202;2024-03-23T11:28:34;9.60;69.70
16627;DHT22;8427;52.204;7.202;2024-03-23T11:31:01;9.90;67.20
16627;DHT22;8427;52.204;7.202;2024-03-23T11:33:31;9.50;63.50
16627;DHT22;8427;52.204;7.202;2024-03-23T11:35:58;9.30;68.40
16627;DHT22;8427;52.204;7.202;2024-03-23T11:38:25;8.70;70.40
16627;DHT22;8427;52.204;7.202;2024-03-23T11:40:51;8.10;70.30
16627;DHT22;8427;52.204;7.202;2024-03-23T11:43:26;7.10;71.10
16627;DHT22;8427;52.204;7.202;2024-03-23T11:45:58;7.20;73.00
16627;DHT22;8427;52.204;7.202;2024-03-23T11:48:31;7.60;71.70
16627;DHT22;8427;52.204;7.202;2024-03-23T11:51:03;7.60;71.80
16627;DHT22;8427;52.204;7.202;2024-03-23T11:53:32;7.70;77.20
16627;DHT22;8427;52.204;7.202;2024-03-23T11:56:01;8.00;76.90
16627;DHT22;8427;52.204;7.202;2024-03-23T11:58:28;8.40;76.30
16627;DHT22;8427;52.204;7.202;2024-03-23T12:00:55;8.40;78.70
16627;DHT22;8427;52.204;7.202;2024-03-23T12:03:27;8.80;77.40
16627;DHT22;8427;52.204;7.202;2024-03-23T12:05:56;8.80;72.50
16627;DHT22;8427;52.204;7.202;2024-03-23T12:08:29;8.10;69.30
16627;DHT22;8427;52.204;7.202;2024-03-23T12:11:16;7.90;71.80
16627;DHT22;8427;52.204;7.202;2024-03-23T12:13:44;7.60;70.60
16627;DHT22;8427;52.204;7.202;2024-03-23T12:16:11;7.60;74.70
16627;DHT22;8427;52.204;7.202;2024-03-23T12:18:42;7.60;73.60
16627;DHT22;8427;52.204;7.202;2024-03-23T12:21:10;7.80;75.80
16627;DHT22;8427;52.204;7.202;2024-03-23T12:23:38;8.20;73.50
16627;DHT22;8427;52.204;7.202;2024-03-23T12:28:34;8.40;69.80
16627;DHT22;8427;52.204;7.202;2024-03-23T12:31:00;8.00;69.90
16627;DHT22;8427;52.204;7.202;2024-03-23T12:33:27;7.80;71.80
16627;DHT22;8427;52.204;7.202;2024-03-23T12:35:53;7.60;72.60
16627;DHT22;8427;52.204;7.202;2024-03-23T12:38:22;7.70;72.80
16627;DHT22;8427;52.204;7.202;2024-03-23T12:40:48;7.60;76.70
16627;DHT22;8427;52.204;7.202;2024-03-23T12:43:15;7.90;77.10
16627;DHT22;8427;52.204;7.202;2024-03-23T12:45:41;8.30;74.10
16627;DHT22;8427;52.204;7.202;2024-03-23T12:48:09;8.40;74.30
16627;DHT22;8427;52.204;7.202;2024-03-23T12:50:37;8.70;74.30
16627;DHT22;8427;52.204;7.202;2024-03-23T12:53:07;8.80;71.90
16627;DHT22;8427;52.204;7.202;2024-03-23T12:55:36;8.70;73.20
16627;DHT22;8427;52.204;7.202;2024-03-23T12:58:04;8.50;72.90
16627;DHT22;8427;52.204;7.202;2024-03-23T13:00:30;8.60;74.20
16627;DHT22;8427;52.204;7.202;2024-03-23T13:02:57;8.10;70.50
16627;DHT22;8427;52.204;7.202;2024-03-23T13:05:24;8.00;70.90
16627;DHT22;8427;52.204;7.202;2024-03-23T13:07:53;7.80;72.00
16627;DHT22;8427;52.204;7.202;2024-03-23T13:10:19;7.70;71.50
16627;DHT22;8427;52.204;7.202;2024-03-23T13:12:51;8.00;70.10
16627;DHT22;8427;52.204;7.202;2024-03-23T13:15:17;8.60;69.70
16627;DHT22;8427;52.204;7.202;2024-03-23T13:17:46;9.20;66.90
16627;DHT22;8427;52.204;7.202;2024-03-23T13:20:12;9.30;64.70
16627;DHT22;8427;52.204;7.202;2024-03-23T13:22:40;9.50;63.70
16627;DHT22;8427;52.204;7.202;2024-03-23T13:25:06;9.90;66.10
16627;DHT22;8427;52.204;7.202;2024-03-23T13:27:33;10.10;65.30
16627;DHT22;8427;52.204;7.202;2024-03-23T13:30:00;10.10;64.30
16627;DHT22;8427;52.204;7.202;2024-03-23T13:32:29;10.00;64.80
16627;DHT22;8427;52.204;7.202;2024-03-23T13:34:56;9.50;63.70
16627;DHT22;8427;52.204;7.202;2024-03-23T13:37:23;9.30;65.30
16627;DHT22;8427;52.204;7.202;2024-03-23T13:39:49;9.40;66.80
16627;DHT22;8427;52.204;7.202;2024-03-23T13:42:16;9.70;64.20
16627;DHT22;8427;52.204;7.202;2024-03-23T13:44:43;10.00;64.00
16627;DHT22;8427;52.204;7.202;2024-03-23T13:47:17;10.30;62.20
16627;DHT22;8427;52.204;7.202;2024-03-23T13:49:43;10.60;59.00
16627;DHT22;8427;52.204;7.202;2024-03-23T13:52:13;10.20;58.40
16627;DHT22;8427;52.204;7.202;2024-03-23T13:54:39;10.00;58.40
16627;DHT22;8427;52.204;7.202;2024-03-23T13:57:10;10.10;62.60
16627;DHT22;8427;52.204;7.202;2024-03-23T13:59:36;10.00;59.70
16627;DHT22;8427;52.204;7.202;2024-03-23T14:02:04;9.90;60.60
16627;DHT22;8427;52.204;7.202;2024-03-23T14:04:32;9.50;62.10
16627;DHT22;8427;52.204;7.202;2024-03-23T14:06:59;9.30;61.80
16627;DHT22;8427;52.204;7.202;2024-03-23T14:09:25;9.20;61.80
16627;DHT22;8427;52.204;7.202;2024-03-23T14:11:52;9.20;63.30
16627;DHT22;8427;52.204;7.202;2024-03-23T14:14:18;9.20;64.80
16627;DHT22;8427;52.204;7.202;2024-03-23T14:16:47;9.30;66.00
16627;DHT22;8427;52.204;7.202;2024-03-23T14:19:14;9.70;64.90
16627;DHT22;8427;52.204;7.202;2024-03-23T14:21:43;10.00;64.50
16627;DHT22;8427;52.204;7.202;2024-03-23T14:24:10;10.30;61.70
16627;DHT22;8427;52.204;7.202;2024-03-23T14:26:37;10.20;61.90
16627;DHT22;8427;52.204;7.202;2024-03-23T14:29:05;10.10;61.20
16627;DHT22;8427;52.204;7.202;2024-03-23T14:31:36;9.90;63.40
16627;DHT22;8427;52.204;7.202;2024-03-23T14:34:02;9.90;63.80
16627;DHT22;8427;52.204;7.202;2024-03-23T14:36:30;10.00;62.60
16627;DHT22;8427;52.204;7.202;2024-03-23T14:38:58;9.90;61.70
16627;DHT22;8427;52.204;7.202;2024-03-23T14:41:26;10.10;63.50
16627;DHT22;8427;52.204;7.202;2024-03-23T14:43:52;10.20;57.60
16627;DHT22;8427;52.204;7.202;2024-03-23T14:46:20;10.20;57.40
16627;DHT22;8427;52.204;7.202;2024-03-23T14:48:47;10.20;57.20
16627;DHT22;8427;52.204;7.202;2024-03-23T14:51:14;10.00;58.70
16627;DHT22;8427;52.204;7.202;2024-03-23T14:53:40;9.60;61.90
16627;DHT22;8427;52.204;7.202;2024-03-23T14:56:09;9.60;64.60
16627;DHT22;8427;52.204;7.202;2024-03-23T14:58:37;8.70;66.30
16627;DHT22;8427;52.204;7.202;2024-03-23T15:01:06;8.40;69.30
16627;DHT22;8427;52.204;7.202;2024-03-23T15:03:36;8.20;68.50
16627;DHT22;8427;52.204;7.202;2024-03-23T15:06:05;7.90;72.50
16627;DHT22;8427;52.204;7.202;2024-03-23T15:08:31;7.80;74.10
16627;DHT22;8427;52.204;7.202;2024-03-23T15:10:58;7.60;74.10
16627;DHT22;8427;52.204;7.202;2024-03-23T15:13:26;7.60;74.60
16627;DHT22;8427;52.204;7.202;2024-03-23T15:15:53;7.50;75.70
16627;DHT22;8427;52.204;7.202;2024-03-23T15:18:19;7.80;76.30
16627;DHT22;8427;52.204;7.202;2024-03-23T15:20:51;8.00;73.40
16627;DHT22;8427;52.204;7.202;2024-03-23T15:23:17;8.20;71.30
16627;DHT22;8427;52.204;7.202;2024-03-23T15:25:44;8.30;69.30
16627;DHT22;8427;52.204;7.202;2024-03-23T15:28:10;8.20;69.20
16627;DHT22;8427;52.204;7.202;2024-03-23T15:30:39;8.40;68.20
16627;DHT22;8427;52.204;7.202;2024-03-23T15:33:05;8.40;66.30
16627;DHT22;8427;52.204;7.202;2024-03-23T15:35:32;8.10;65.50
16627;DHT22;8427;52.204;7.202;2024-03-23T15:38:01;7.90;68.30
16627;DHT22;8427;52.204;7.202;2024-03-23T15:40:31;8.00;70.30
16627;DHT22;8427;52.204;7.202;2024-03-23T15:42:58;7.80;68.00
16627;DHT22;8427;52.204;7.202;2024-03-23T15:45:26;7.90;67.20
16627;DHT22;8427;52.204;7.202;2024-03-23T15:47:54;7.80;67.20
16627;DHT22;8427;52.204;7.202;2024-03-23T15:50:21;7.80;65.20
16627;DHT22;8427;52.204;7.202;2024-03-23T15:52:47;8.10;65.80
16627;DHT22;8427;52.204;7.202;2024-03-23T15:55:15;8.40;67.40
16627;DHT22;8427;52.204;7.202;2024-03-23T15:57:41;8.50;66.10
16627;DHT22;8427;52.204;7.202;2024-03-23T16:00:09;8.30;63.70
16627;DHT22;8427;52.204;7.202;2024-03-23T16:02:36;8.40;65.40
16627;DHT22;8427;52.204;7.202;2024-03-23T16:05:08;8.40;65.50
16627;DHT22;8427;52.204;7.202;2024-03-23T16:07:37;8.40;66.70
16627;DHT22;8427;52.204;7.202;2024-03-23T16:10:05;8.30;67.80
16627;DHT22;8427;52.204;7.202;2024-03-23T16:12:33;8.20;67.50
16627;DHT22;8427;52.204;7.202;2024-03-23T16:15:00;8.00;70.40
16627;DHT22;8427;52.204;7.202;2024-03-23T16:17:28;7.70;72.20
16627;DHT22;8427;52.204;7.202;2024-03-23T16:20:01;7.60;74.60
16627;DHT22;8427;52.204;7.202;2024-03-23T16:22:29;7.60;76.40
16627;DHT22;8427;52.204;7.202;2024-03-23T16:24:56;7.50;76.20
16627;DHT22;8427;52.204;7.202;2024-03-23T16:27:22;7.20;76.90
16627;DHT22;8427;52.204;7.202;2024-03-23T16:29:49;7.40;77.80
16627;DHT22;8427;52.204;7.202;2024-03-23T16:32:17;7.40;74.90
16627;DHT22;8427;52.204;7.202;2024-03-23T16:34:50;7.60;75.80
16627;DHT22;8427;52.204;7.202;2024-03-23T16:37:18;7.60;76.00
16627;DHT22;8427;52.204;7.202;2024-03-23T16:39:49;7.60;75.90
16627;DHT22;8427;52.204;7.202;2024-03-23T16:42:17;7.60;76.80
16627;DHT22;8427;52.204;7.202;2024-03-23T16:44:48;7.80;76.80
16627;DHT22;8427;52.204;7.202;2024-03-23T16:47:15;7.70;76.70
16627;DHT22;8427;52.204;7.202;2024-03-23T16:49:45;7.80;75.60
16627;DHT22;8427;52.204;7.202;2024-03-23T16:52:12;7.70;75.90
16627;DHT22;8427;52.204;7.202;2024-03-23T16:54:47;7.40;76.70
16627;DHT22;8427;52.204;7.202;2024-03-23T16:57:20;7.60;77.10
16627;DHT22;8427;52.204;7.202;2024-03-23T16:59:51;7.50;77.10
16627;DHT22;8427;52.204;7.202;2024-03-23T17:02:19;7.60;76.90
16627;DHT22;8427;52.204;7.202;2024-03-23T17:04:47;7.60;76.20
16627;DHT22;8427;52.204;7.202;2024-03-23T17:07:13;7.40;76.40
16627;DHT22;8427;52.204;7.202;2024-03-23T17:09:46;7.40;74.60
16627;DHT22;8427;52.204;7.202;2024-03-23T17:12:12;7.20;73.00
16627;DHT22;8427;52.204;7.202;2024-03-23T17:14:45;7.20;74.10
16627;DHT22;8427;52.204;7.202;2024-03-23T17:17:16;7.10;72.10
16627;DHT22;8427;52.204;7.202;2024-03-23T17:19:45;6.90;73.30
16627;DHT22;8427;52.204;7.202;2024-03-23T17:22:12;6.90;75.90
16627;DHT22;8427;52.204;7.202;2024-03-23T17:24:41;6.50;77.40
16627;DHT22;8427;52.204;7.202;2024-03-23T17:27:08;5.60;81.70
16627;DHT22;8427;52.204;7.202;2024-03-23T17:29:44;5.40;83.00
16627;DHT22;8427;52.204;7.202;2024-03-23T17:32:11;5.10;84.40
16627;DHT22;8427;52.204;7.202;2024-03-23T17:34:41;5.00;85.40
16627;DHT22;8427;52.204;7.202;2024-03-23T17:37:09;5.10;85.20
16627;DHT22;8427;52.204;7.202;2024-03-23T17:42:39;5.00;84.90
16627;DHT22;8427;52.204;7.202;2024-03-23T17:45:10;5.00;84.80
16627;DHT22;8427;52.204;7.202;2024-03-23T17:47:41;4.90;85.30
16627;DHT22;8427;52.204;7.202;2024-03-23T17:50:11;5.00;85.80
16627;DHT22;8427;52.204;7.202;2024-03-23T17:52:38;4.70;85.60
16627;DHT22;8427;52.204;7.202;2024-03-23T17:55:09;4.90;86.10
16627;DHT22;8427;52.204;7.202;2024-03-23T17:57:36;4.60;86.40
16627;DHT22;8427;52.204;7.202;2024-03-23T18:00:08;4.60;87.30
16627;DHT22;8427;52.204;7.202;2024-03-23T18:02:37;4.50;87.50
16627;DHT22;8427;52.204;7.202;2024-03-23T18:05:05;4.90;87.30
16627;DHT22;8427;52.204;7.202;2024-03-23T18:07:32;4.60;87.30